Terminal Aerodrome Forecast
Issued by NWS Greer, SC

Current Version | Previous Version | Text Only | Print | Product List | Glossary On
Versions: 1 2 3 4 5 6 7 8 9 10 11 12
000
FTUS42 KGSP 030531
TAFGSP
TAF
KGSP 030531Z 0306/0406 21003KT P6SM BKN250
     FM031300 21003KT P6SM SCT045
     FM031800 20004KT P6SM SCT060
     FM040000 21003KT P6SM SCT070=

USA.gov is the U.S. government's official web portal to all federal, state and local government web resources and services.